createdAt,value
2016-10-12T14:11:47.877Z,30
2016-10-12T14:12:08.483Z,30
2016-10-12T14:12:29.092Z,35
2016-10-12T14:12:50.647Z,35
2016-10-12T14:13:12.199Z,40
2016-10-12T14:13:33.694Z,40
2016-10-12T14:13:55.120Z,40
2016-10-12T14:14:15.734Z,40
2016-10-12T14:14:37.159Z,40
2016-10-12T14:14:57.763Z,40
2016-10-12T14:15:18.337Z,40
2016-10-12T14:15:38.963Z,40
2016-10-12T14:15:59.546Z,40
2016-10-12T14:16:20.151Z,40
2016-10-12T14:16:41.763Z,40
2016-10-12T14:17:02.359Z,40
2016-10-12T14:17:22.999Z,40
2016-10-12T14:17:44.156Z,40
2016-10-12T14:18:05.638Z,40
2016-10-12T14:18:26.307Z,45
2016-10-12T14:18:46.934Z,45
2016-10-12T14:19:08.179Z,45
2016-10-12T14:19:28.818Z,45
2016-10-12T14:19:49.468Z,45
2016-10-12T14:20:10.082Z,45
2016-10-12T14:20:31.192Z,45
2016-10-12T14:20:52.669Z,45
2016-10-12T14:21:13.263Z,45
2016-10-12T14:21:34.737Z,45
2016-10-12T14:21:56.241Z,45
2016-10-12T14:22:17.638Z,45
2016-10-12T14:22:38.262Z,45
2016-10-12T14:22:58.900Z,45
2016-10-12T14:23:19.512Z,45
2016-10-12T14:23:40.159Z,45
2016-10-12T14:24:01.693Z,40
2016-10-12T14:24:24.144Z,40
2016-10-12T14:24:45.692Z,40
2016-10-12T14:25:06.285Z,40
2016-10-12T14:25:26.893Z,40
2016-10-12T14:25:47.495Z,40
2016-10-12T14:26:08.125Z,40
2016-10-12T14:26:28.729Z,35
2016-10-12T14:26:49.327Z,35
2016-10-12T14:27:09.988Z,35
2016-10-12T14:27:30.707Z,40
2016-10-12T14:27:51.377Z,40
2016-10-12T14:28:12.706Z,40
2016-10-12T14:28:33.315Z,35
2016-10-12T14:28:53.944Z,35
2016-10-12T14:29:14.564Z,35
2016-10-12T14:29:35.713Z,35
2016-10-12T14:29:57.138Z,35
2016-10-12T14:30:17.776Z,35
2016-10-12T14:30:38.367Z,35
2016-10-12T14:30:59.659Z,30
2016-10-12T14:31:21.240Z,30
2016-10-12T14:31:41.844Z,30
2016-10-12T14:32:03.177Z,30
2016-10-12T14:32:23.776Z,30
2016-10-12T14:32:44.065Z,30
2016-10-12T14:33:04.677Z,30
2016-10-12T14:33:25.295Z,30
2016-10-12T14:33:45.910Z,30
2016-10-12T14:34:06.522Z,30
2016-10-12T14:34:27.742Z,30
2016-10-12T14:34:49.147Z,30
2016-10-12T14:35:09.756Z,30
2016-10-12T14:35:30.425Z,35
2016-10-12T14:35:51.034Z,35
2016-10-12T14:36:13.179Z,35
2016-10-12T14:36:33.854Z,35
2016-10-12T14:36:54.443Z,35
2016-10-12T14:37:15.758Z,40
2016-10-12T14:37:36.395Z,40
2016-10-12T14:37:57.771Z,40
2016-10-12T14:38:19.152Z,40
2016-10-12T14:38:39.747Z,40
2016-10-12T14:39:00.377Z,35
2016-10-12T14:39:21.018Z,35
2016-10-12T14:39:41.638Z,35
2016-10-12T14:40:02.267Z,35
2016-10-12T14:40:22.889Z,35
2016-10-12T14:40:43.562Z,35
2016-10-12T14:41:04.152Z,35
2016-10-12T14:41:24.771Z,30
2016-10-12T14:41:45.466Z,30
2016-10-12T14:42:06.116Z,30
2016-10-12T14:42:26.714Z,30
2016-10-12T14:42:47.309Z,30
2016-10-12T14:43:07.951Z,30
2016-10-12T14:43:29.190Z,30
2016-10-12T14:43:49.801Z,25
2016-10-12T14:44:10.493Z,25
2016-10-12T14:44:31.111Z,25
2016-10-12T14:44:51.764Z,25
2016-10-12T14:45:13.205Z,25
2016-10-12T14:45:34.652Z,25
2016-10-12T14:45:55.334Z,25
2016-10-12T14:46:16.716Z,20
2016-10-12T14:46:37.338Z,20
2016-10-12T14:46:57.947Z,20
2016-10-12T14:47:19.158Z,20
2016-10-12T14:47:39.888Z,20
2016-10-12T14:48:00.477Z,20
2016-10-12T14:48:22.202Z,20
2016-10-12T14:48:42.786Z,20
2016-10-12T14:49:04.319Z,20
2016-10-12T14:49:24.993Z,20
2016-10-12T14:49:45.692Z,20
2016-10-12T14:50:06.308Z,20
2016-10-12T14:50:28.658Z,20
2016-10-12T14:50:49.247Z,20
2016-10-12T14:51:09.892Z,20
2016-10-12T14:51:31.191Z,20
2016-10-12T14:51:51.772Z,20
2016-10-12T14:52:12.401Z,20
2016-10-12T14:52:33.003Z,20
2016-10-12T14:52:53.647Z,20
2016-10-12T14:53:14.258Z,20
2016-10-12T14:53:34.848Z,20
2016-10-12T14:53:55.459Z,20
2016-10-12T14:54:16.754Z,20
2016-10-12T14:54:37.398Z,20
2016-10-12T14:54:58.667Z,20
2016-10-12T14:55:20.139Z,20
2016-10-12T14:55:41.678Z,20
2016-10-12T14:56:02.260Z,20
2016-10-12T14:56:23.693Z,20
2016-10-12T14:56:44.395Z,20
2016-10-12T14:57:05.031Z,20
2016-10-12T14:57:25.633Z,20
2016-10-12T14:57:46.230Z,20
2016-10-12T14:58:06.875Z,20
2016-10-12T14:58:27.497Z,20
2016-10-12T14:58:48.140Z,20
2016-10-12T14:59:08.751Z,20
2016-10-12T14:59:29.438Z,20
2016-10-12T14:59:50.023Z,20
2016-10-12T15:00:10.723Z,20
2016-10-12T15:00:31.362Z,20
2016-10-12T15:00:52.672Z,20
2016-10-12T15:01:13.283Z,20
2016-10-12T15:01:33.885Z,20
2016-10-12T15:01:55.154Z,15
2016-10-12T15:02:15.768Z,15
2016-10-12T15:02:36.470Z,15
2016-10-12T15:02:57.056Z,15
2016-10-12T15:03:18.197Z,15
2016-10-12T15:03:39.715Z,20
2016-10-12T15:04:00.300Z,20
2016-10-12T15:04:20.917Z,20
2016-10-12T15:04:41.527Z,20
2016-10-12T15:05:02.219Z,20
2016-10-12T15:05:22.827Z,20
2016-10-12T15:05:44.173Z,20
2016-10-12T15:06:05.738Z,15
2016-10-12T15:06:27.202Z,15
2016-10-12T15:06:47.817Z,15
2016-10-12T15:07:08.392Z,15
2016-10-12T15:07:29.810Z,15
2016-10-12T15:07:50.411Z,15
2016-10-12T15:08:11.009Z,15
2016-10-12T15:08:32.169Z,15
2016-10-12T15:08:52.793Z,15
2016-10-12T15:09:13.373Z,15
2016-10-12T15:09:33.985Z,15
2016-10-12T15:09:54.626Z,15
2016-10-12T15:10:15.219Z,15
2016-10-12T15:10:36.736Z,15
2016-10-12T15:10:57.289Z,15
2016-10-12T15:11:18.746Z,15
2016-10-12T15:11:43.216Z,15
2016-10-12T15:12:03.816Z,15
2016-10-12T15:12:24.436Z,15
2016-10-12T15:12:45.050Z,15
2016-10-12T15:13:05.686Z,20
2016-10-12T15:13:26.293Z,20
2016-10-12T15:13:46.928Z,20
2016-10-12T15:14:07.498Z,20
2016-10-12T15:14:28.670Z,15
2016-10-12T15:14:49.263Z,15
2016-10-12T15:15:09.879Z,15
2016-10-12T15:15:30.477Z,15
2016-10-12T15:15:51.735Z,15
2016-10-12T15:16:12.329Z,15
2016-10-12T15:16:32.975Z,15
2016-10-12T15:16:53.610Z,15
2016-10-12T15:17:15.682Z,15
2016-10-12T15:17:37.254Z,15
2016-10-12T15:17:58.762Z,15
2016-10-12T15:18:19.344Z,15
2016-10-12T15:18:40.678Z,20
2016-10-12T15:19:01.268Z,20
2016-10-12T15:19:22.651Z,15
2016-10-12T15:19:44.257Z,15
2016-10-12T15:20:05.689Z,15
2016-10-12T15:20:27.229Z,15
2016-10-12T15:20:47.856Z,15
2016-10-12T15:21:08.495Z,15
2016-10-12T15:21:29.205Z,10
2016-10-12T15:21:49.810Z,10
2016-10-12T15:22:10.622Z,10
2016-10-12T15:22:32.666Z,10
2016-10-12T15:22:54.202Z,10
2016-10-12T15:23:14.503Z,10
2016-10-12T15:23:35.738Z,10
2016-10-12T15:23:56.330Z,10
2016-10-12T15:24:16.926Z,10
2016-10-12T15:24:37.573Z,10
2016-10-12T15:24:58.173Z,10
2016-10-12T15:25:18.780Z,10
2016-10-12T15:25:39.383Z,10
2016-10-12T15:25:59.953Z,10
2016-10-12T15:26:20.598Z,15
2016-10-12T15:26:41.248Z,15
2016-10-12T15:27:01.866Z,15
2016-10-12T15:27:23.202Z,15
2016-10-12T15:27:43.835Z,15
2016-10-12T15:28:05.168Z,15
2016-10-12T15:28:25.772Z,15
2016-10-12T15:28:47.176Z,15
2016-10-12T15:29:07.782Z,15
2016-10-12T15:29:29.591Z,15
2016-10-12T15:29:50.456Z,15
2016-10-12T15:30:11.144Z,15
2016-10-12T15:30:31.754Z,10
2016-10-12T15:30:53.271Z,10
2016-10-12T15:31:13.898Z,10
2016-10-12T15:31:34.548Z,10
2016-10-12T15:31:55.977Z,10
2016-10-12T15:32:16.627Z,10
2016-10-12T15:32:37.294Z,10
2016-10-12T15:32:59.740Z,10
2016-10-12T15:33:21.222Z,10
2016-10-12T15:33:42.740Z,10
2016-10-12T15:34:03.431Z,15
2016-10-12T15:34:24.292Z,15
2016-10-12T15:34:44.967Z,15
2016-10-12T15:35:05.707Z,15
2016-10-12T15:35:26.383Z,15
2016-10-12T15:35:47.044Z,15
2016-10-12T15:36:07.660Z,15
2016-10-12T15:36:28.395Z,15
2016-10-12T15:36:49.051Z,15
2016-10-12T15:37:11.231Z,15
2016-10-12T15:37:31.884Z,15
2016-10-12T15:37:54.157Z,15
2016-10-12T15:38:14.805Z,15
2016-10-12T15:38:35.839Z,15
2016-10-12T15:38:56.528Z,15
2016-10-12T15:39:17.132Z,15
2016-10-12T15:39:38.264Z,15
2016-10-12T15:39:58.947Z,15
2016-10-12T15:40:19.568Z,15
2016-10-12T15:40:40.759Z,20
2016-10-12T15:41:01.390Z,15
2016-10-12T15:41:21.959Z,15
2016-10-12T15:41:43.253Z,15
2016-10-12T15:42:03.897Z,15
2016-10-12T15:42:24.500Z,15
2016-10-12T15:42:45.107Z,15
2016-10-12T15:43:06.679Z,15
2016-10-12T15:43:27.276Z,10
2016-10-12T15:43:47.885Z,10
2016-10-12T15:44:09.423Z,10
2016-10-12T15:44:30.706Z,10
2016-10-12T15:44:52.195Z,10
2016-10-12T15:45:12.870Z,10
2016-10-12T15:45:33.758Z,10
2016-10-12T15:45:54.359Z,10
2016-10-12T15:46:15.011Z,10
2016-10-12T15:46:36.259Z,10
2016-10-12T15:46:57.749Z,10
2016-10-12T15:47:18.326Z,10
2016-10-12T15:47:38.964Z,5
2016-10-12T15:47:59.543Z,5
2016-10-12T15:48:20.409Z,5
2016-10-12T15:48:41.683Z,5
2016-10-12T15:49:02.365Z,5
2016-10-12T15:49:22.960Z,5
2016-10-12T15:49:43.588Z,5
2016-10-12T15:50:04.222Z,5
2016-10-12T15:50:25.017Z,5
2016-10-12T15:50:45.609Z,5
2016-10-12T15:51:06.198Z,5
2016-10-12T15:51:27.790Z,5
2016-10-12T15:51:48.414Z,5
2016-10-12T15:52:09.747Z,5
2016-10-12T15:52:30.331Z,5
2016-10-12T15:52:50.999Z,5
2016-10-12T15:53:13.264Z,5
2016-10-12T15:53:34.669Z,5
2016-10-12T15:53:55.297Z,5
2016-10-12T15:54:16.785Z,5
2016-10-12T15:54:37.395Z,5
2016-10-12T15:54:58.044Z,5
2016-10-12T15:55:18.645Z,5
2016-10-12T15:55:39.751Z,5
2016-10-12T15:56:01.254Z,5
2016-10-12T15:56:21.920Z,5
2016-10-12T15:56:42.562Z,5
2016-10-12T15:57:03.360Z,5
2016-10-12T15:57:23.955Z,0
2016-10-12T15:57:44.577Z,0
2016-10-12T15:58:05.755Z,0
2016-10-12T15:58:26.434Z,0
2016-10-12T15:58:47.027Z,0
2016-10-12T15:59:07.680Z,0
2016-10-12T15:59:28.301Z,0
2016-10-12T15:59:49.683Z,0
2016-10-12T16:00:10.367Z,5
2016-10-12T16:00:32.305Z,0
2016-10-12T16:00:53.003Z,0
2016-10-12T16:01:13.625Z,0
2016-10-12T16:01:34.383Z,0
2016-10-12T16:01:54.992Z,5
2016-10-12T16:02:16.314Z,5
2016-10-12T16:02:36.925Z,0
2016-10-12T16:02:57.547Z,0
2016-10-12T16:03:18.194Z,0
2016-10-12T16:03:40.262Z,0
2016-10-12T16:04:00.835Z,0
2016-10-12T16:04:21.419Z,0
2016-10-12T16:04:42.009Z,0
2016-10-12T16:05:02.265Z,0
2016-10-12T16:05:22.883Z,0
2016-10-12T16:05:43.561Z,0
2016-10-12T16:06:04.181Z,0
2016-10-12T16:06:24.837Z,0
2016-10-12T16:06:45.448Z,0
2016-10-12T16:07:06.090Z,0
2016-10-12T16:07:26.724Z,0
2016-10-12T16:07:48.259Z,0
2016-10-12T16:08:08.854Z,0
2016-10-12T16:08:29.494Z,0
2016-10-12T16:08:50.099Z,0
2016-10-12T16:09:10.678Z,0
2016-10-12T16:09:32.704Z,0
2016-10-12T16:09:53.312Z,0
2016-10-12T16:10:13.966Z,0
2016-10-12T16:10:34.583Z,0
2016-10-12T16:10:55.156Z,0
2016-10-12T16:11:15.780Z,0
2016-10-12T16:11:37.185Z,0
2016-10-12T16:11:58.813Z,0
2016-10-12T16:12:19.454Z,0
2016-10-12T16:12:40.068Z,0
2016-10-12T16:13:00.684Z,0
2016-10-12T16:13:22.207Z,0
2016-10-12T16:13:42.828Z,0
2016-10-12T16:14:04.276Z,0
2016-10-12T16:14:25.742Z,0
2016-10-12T16:14:46.368Z,0
2016-10-12T16:15:07.793Z,0
2016-10-12T16:15:28.411Z,0
2016-10-12T16:15:49.696Z,0
2016-10-12T16:16:11.773Z,0
2016-10-12T16:16:32.411Z,0
2016-10-12T16:16:53.048Z,0
2016-10-12T16:17:14.334Z,0
2016-10-12T16:17:34.950Z,0
2016-10-12T16:17:56.240Z,0
2016-10-12T16:18:16.906Z,0
2016-10-12T16:18:37.606Z,0
2016-10-12T16:18:59.382Z,0
2016-10-12T16:19:20.006Z,0
2016-10-12T16:19:40.579Z,0
2016-10-12T16:20:01.221Z,0
2016-10-12T16:20:22.805Z,0
2016-10-12T16:20:43.419Z,0
2016-10-12T16:21:04.704Z,0
2016-10-12T16:21:25.350Z,0
2016-10-12T16:21:45.963Z,0
2016-10-12T16:22:06.610Z,0
2016-10-12T16:22:27.709Z,0
2016-10-12T16:22:50.201Z,0
2016-10-12T16:23:12.290Z,0
2016-10-12T16:23:32.964Z,0
2016-10-12T16:23:54.262Z,0
2016-10-12T16:24:14.868Z,0
2016-10-12T16:24:35.545Z,0
2016-10-12T16:24:56.750Z,0
2016-10-12T16:25:17.409Z,0
2016-10-12T16:25:37.991Z,0
2016-10-12T16:25:59.328Z,0
2016-10-12T16:26:19.938Z,0
2016-10-12T16:26:40.561Z,0
2016-10-12T16:27:01.165Z,0
2016-10-12T16:27:22.697Z,0
2016-10-12T16:27:44.212Z,0
2016-10-12T16:28:05.694Z,0
2016-10-12T16:28:26.419Z,0
2016-10-12T16:28:47.003Z,0
2016-10-12T16:29:08.800Z,0
2016-10-12T16:29:29.470Z,0
2016-10-12T16:29:50.715Z,0
2016-10-12T16:30:12.248Z,0
2016-10-12T16:30:32.852Z,0
2016-10-12T16:30:53.534Z,0
2016-10-12T16:31:14.169Z,0
2016-10-12T16:31:34.809Z,0
2016-10-12T16:31:55.402Z,0
2016-10-12T16:32:16.006Z,0
2016-10-12T16:32:37.213Z,0
2016-10-12T16:32:59.688Z,0
2016-10-12T16:33:20.268Z,0
2016-10-12T16:33:40.894Z,0
2016-10-12T16:34:01.729Z,0
2016-10-12T16:34:22.316Z,0
2016-10-12T16:34:43.710Z,0
2016-10-12T16:35:04.317Z,0
2016-10-12T16:35:24.969Z,0
2016-10-12T16:35:46.216Z,0
2016-10-12T16:36:06.867Z,0
2016-10-12T16:36:28.216Z,0
2016-10-12T16:36:49.728Z,0
2016-10-12T16:37:10.333Z,0
2016-10-12T16:37:31.708Z,0
2016-10-12T16:37:52.344Z,0
2016-10-12T16:38:12.963Z,0
2016-10-12T16:38:33.588Z,0
2016-10-12T16:38:54.232Z,0
2016-10-12T16:39:14.853Z,0
2016-10-12T16:39:35.457Z,0
2016-10-12T16:39:56.058Z,0
2016-10-12T16:40:17.325Z,0
2016-10-12T16:40:37.933Z,0
2016-10-12T16:40:59.224Z,0
2016-10-12T16:41:20.766Z,0
2016-10-12T16:41:41.401Z,0
2016-10-12T16:42:02.781Z,0
2016-10-12T16:42:23.385Z,0
2016-10-12T16:42:43.654Z,0
2016-10-12T16:43:05.203Z,0
2016-10-12T16:43:26.717Z,0
2016-10-12T16:43:47.371Z,0
2016-10-12T16:44:07.989Z,0
2016-10-12T16:44:29.370Z,0
2016-10-12T16:44:49.971Z,0
2016-10-12T16:45:10.590Z,0
2016-10-12T16:45:31.210Z,0
2016-10-12T16:45:51.811Z,0
2016-10-12T16:46:12.396Z,0
2016-10-12T16:46:32.996Z,0
2016-10-12T16:46:54.255Z,0
2016-10-12T16:47:14.840Z,0
2016-10-12T16:47:36.302Z,0
2016-10-12T16:47:57.722Z,0
2016-10-12T16:48:18.389Z,0
2016-10-12T16:48:39.223Z,0
2016-10-12T16:48:59.895Z,0
2016-10-12T16:49:22.202Z,0
2016-10-12T16:49:42.803Z,0
2016-10-12T16:50:03.399Z,0
2016-10-12T16:50:24.157Z,0
2016-10-12T16:50:44.853Z,0
2016-10-12T16:51:06.269Z,0
2016-10-12T16:51:26.895Z,0
2016-10-12T16:51:47.553Z,0
2016-10-12T16:52:08.176Z,0
2016-10-12T16:52:28.786Z,0
2016-10-12T16:52:49.408Z,0
2016-10-12T16:53:10.032Z,0
2016-10-12T16:53:30.715Z,0
2016-10-12T16:53:51.371Z,0
2016-10-12T16:54:11.967Z,0
2016-10-12T16:54:32.633Z,0
2016-10-12T16:54:54.208Z,0
2016-10-12T16:55:15.426Z,0
2016-10-12T16:55:36.177Z,0
2016-10-12T16:55:56.787Z,0
2016-10-12T16:56:17.390Z,0
2016-10-12T16:56:38.782Z,0
2016-10-12T16:57:00.280Z,0
2016-10-12T16:57:20.910Z,0
2016-10-12T16:57:42.432Z,0
2016-10-12T16:58:03.061Z,0
2016-10-12T16:58:24.264Z,0
2016-10-12T16:58:45.701Z,0
2016-10-12T16:59:07.827Z,0
2016-10-12T16:59:28.475Z,0
2016-10-12T16:59:49.125Z,0
2016-10-12T17:00:10.129Z,0
2016-10-12T17:00:31.018Z,0
2016-10-12T17:00:51.675Z,0
2016-10-12T17:01:12.787Z,0
2016-10-12T17:01:33.440Z,0
2016-10-12T17:01:54.095Z,0
2016-10-12T17:02:14.742Z,0
2016-10-12T17:02:35.418Z,0
2016-10-12T17:02:56.821Z,0
2016-10-12T17:03:17.493Z,0
2016-10-12T17:03:38.782Z,0
2016-10-12T17:03:59.371Z,0
2016-10-12T17:04:19.963Z,0
2016-10-12T17:04:40.558Z,0
2016-10-12T17:05:01.173Z,0
2016-10-12T17:05:21.825Z,0
2016-10-12T17:05:42.468Z,0
2016-10-12T17:06:04.719Z,0
2016-10-12T17:06:26.235Z,0
2016-10-12T17:06:48.198Z,0
2016-10-12T17:07:08.832Z,0
2016-10-12T17:07:29.470Z,0
2016-10-12T17:07:50.095Z,0
2016-10-12T17:08:11.214Z,0
2016-10-12T17:08:31.836Z,0
2016-10-12T17:08:52.454Z,0
2016-10-12T17:09:13.052Z,0
2016-10-12T17:09:33.633Z,0
2016-10-12T17:09:54.208Z,0
2016-10-12T17:10:15.884Z,0
2016-10-12T17:10:36.493Z,0
2016-10-12T17:10:57.110Z,0
2016-10-12T17:11:17.769Z,0
2016-10-12T17:11:39.295Z,0
2016-10-12T17:11:59.901Z,0
2016-10-12T17:12:20.538Z,0
2016-10-12T17:12:41.186Z,0
2016-10-12T17:13:01.771Z,0
2016-10-12T17:13:22.386Z,0
2016-10-12T17:13:43.008Z,0
2016-10-12T17:14:04.307Z,0
2016-10-12T17:14:25.819Z,0
2016-10-12T17:14:46.441Z,0
2016-10-12T17:15:07.099Z,0
2016-10-12T17:15:28.235Z,0
2016-10-12T17:15:48.900Z,0
2016-10-12T17:16:09.542Z,0
2016-10-12T17:16:30.257Z,0
2016-10-12T17:16:50.885Z,0
2016-10-12T17:17:11.557Z,0
2016-10-12T17:17:32.163Z,0
2016-10-12T17:17:52.794Z,0
2016-10-12T17:18:13.368Z,0
2016-10-12T17:18:33.963Z,0
2016-10-12T17:18:54.545Z,0
2016-10-12T17:19:15.216Z,0
2016-10-12T17:19:36.787Z,0
2016-10-12T17:19:57.451Z,0
2016-10-12T17:20:18.785Z,0
2016-10-12T17:20:39.526Z,0
2016-10-12T17:21:00.993Z,0
2016-10-12T17:21:22.262Z,0
2016-10-12T17:21:43.733Z,0
2016-10-12T17:22:04.378Z,0
2016-10-12T17:22:24.962Z,0
2016-10-12T17:22:45.581Z,0
2016-10-12T17:23:06.230Z,0
2016-10-12T17:23:26.824Z,0
2016-10-12T17:23:47.476Z,0
2016-10-12T17:24:08.053Z,0
2016-10-12T17:24:28.657Z,0
2016-10-12T17:24:49.310Z,0
2016-10-12T17:25:10.807Z,0
2016-10-12T17:25:32.225Z,0
2016-10-12T17:25:53.738Z,0
2016-10-12T17:26:14.427Z,0
2016-10-12T17:26:35.089Z,0
2016-10-12T17:26:55.699Z,0
2016-10-12T17:27:17.242Z,0
2016-10-12T17:27:37.850Z,0
2016-10-12T17:27:59.218Z,0
2016-10-12T17:28:20.790Z,0
2016-10-12T17:28:41.401Z,0
2016-10-12T17:29:02.030Z,0
2016-10-12T17:29:24.234Z,0
2016-10-12T17:29:45.780Z,0
2016-10-12T17:30:07.296Z,0
2016-10-12T17:30:28.737Z,0
2016-10-12T17:30:49.362Z,0
2016-10-12T17:31:09.960Z,0
2016-10-12T17:31:30.600Z,0
2016-10-12T17:31:56.456Z,0
2016-10-12T17:32:17.161Z,0
2016-10-12T17:32:38.748Z,0
2016-10-12T17:33:00.376Z,0
2016-10-12T17:33:21.079Z,0
2016-10-12T17:33:42.348Z,0
2016-10-12T17:34:03.837Z,0
2016-10-12T17:34:24.476Z,0
2016-10-12T17:34:45.080Z,0
2016-10-12T17:35:05.736Z,0
2016-10-12T17:35:26.433Z,0
2016-10-12T17:35:47.136Z,0
2016-10-12T17:36:08.321Z,0
2016-10-12T17:36:31.241Z,0
2016-10-12T17:36:51.916Z,0
2016-10-12T17:37:12.618Z,0
2016-10-12T17:37:33.294Z,0
2016-10-12T17:37:53.929Z,0
2016-10-12T17:38:14.702Z,0
2016-10-12T17:38:36.334Z,0
2016-10-12T17:38:57.087Z,0
2016-10-12T17:39:17.813Z,0
2016-10-12T17:39:39.243Z,0
2016-10-12T17:39:59.997Z,0
2016-10-12T17:40:21.317Z,0
2016-10-12T17:40:42.747Z,0
2016-10-12T17:41:03.465Z,0
2016-10-12T17:41:24.861Z,0
2016-10-12T17:41:45.622Z,0
2016-10-12T17:42:07.344Z,0
2016-10-12T17:42:29.246Z,0
2016-10-12T17:42:50.021Z,0
2016-10-12T17:43:10.907Z,0
2016-10-12T17:43:31.790Z,0
2016-10-12T17:43:52.702Z,0
2016-10-12T17:44:14.244Z,0
2016-10-12T17:44:35.746Z,0
2016-10-12T17:44:56.316Z,0
2016-10-12T17:45:17.096Z,0
2016-10-12T17:45:37.803Z,0
2016-10-12T17:45:59.456Z,0
2016-10-12T17:46:20.164Z,0
2016-10-12T17:46:41.875Z,0
2016-10-12T17:47:02.613Z,0
2016-10-12T17:47:23.386Z,0
2016-10-12T17:47:45.810Z,0
2016-10-12T17:48:06.851Z,0
2016-10-12T17:48:27.833Z,0
2016-10-12T17:48:50.495Z,0
2016-10-12T17:49:11.396Z,0
2016-10-12T17:49:32.242Z,0
2016-10-12T17:49:53.765Z,0
2016-10-12T17:50:14.622Z,0
2016-10-12T17:50:35.507Z,0
2016-10-12T17:50:56.417Z,0
2016-10-12T17:51:22.370Z,0
2016-10-12T17:51:44.748Z,0
2016-10-12T17:52:05.719Z,0
2016-10-12T17:52:26.766Z,0
2016-10-12T17:52:47.785Z,0
2016-10-12T17:53:08.561Z,0
2016-10-12T17:53:29.826Z,0
2016-10-12T17:53:51.229Z,0
2016-10-12T17:54:12.620Z,0
2016-10-12T17:54:34.037Z,0
2016-10-12T17:54:55.416Z,0
2016-10-12T17:55:16.817Z,0
2016-10-12T17:55:39.003Z,0
2016-10-12T17:56:00.351Z,0
2016-10-12T17:56:21.667Z,0
2016-10-12T17:56:43.927Z,0
2016-10-12T17:57:05.677Z,0
2016-10-12T17:57:27.832Z,0
2016-10-12T17:57:49.862Z,0
2016-10-12T17:58:11.172Z,0
2016-10-12T17:58:33.985Z,0
2016-10-12T17:58:56.137Z,0
2016-10-12T17:59:17.381Z,0
2016-10-12T17:59:39.257Z,0
2016-10-12T18:00:00.444Z,0
2016-10-12T18:00:21.697Z,0
2016-10-12T18:00:42.970Z,0
2016-10-12T18:01:04.204Z,0
2016-10-12T18:01:25.473Z,0
2016-10-12T18:01:47.425Z,0
2016-10-12T18:02:09.338Z,0
2016-10-12T18:02:30.303Z,0
2016-10-12T18:02:51.242Z,0
2016-10-12T18:03:12.410Z,0
2016-10-12T18:03:34.753Z,0
2016-10-12T18:03:55.989Z,0
2016-10-12T18:04:18.776Z,0
2016-10-12T18:04:39.947Z,0
2016-10-12T18:05:01.198Z,0
2016-10-12T18:05:23.334Z,0
2016-10-12T18:05:44.637Z,0
2016-10-12T18:06:05.849Z,0
2016-10-12T18:06:27.188Z,0
2016-10-12T18:06:49.753Z,0
2016-10-12T18:07:11.951Z,0
2016-10-12T18:07:34.814Z,0
2016-10-12T18:07:56.734Z,0
2016-10-12T18:08:18.007Z,0
2016-10-12T18:08:39.270Z,0
2016-10-12T18:09:00.476Z,0
2016-10-12T18:09:21.717Z,0
2016-10-12T18:09:42.955Z,0
2016-10-12T18:10:05.808Z,0
2016-10-12T18:10:27.149Z,0
2016-10-12T18:10:48.413Z,0
2016-10-12T18:11:09.675Z,0
2016-10-12T18:11:30.929Z,0
2016-10-12T18:12:06.771Z,0
2016-10-12T18:12:28.640Z,0
2016-10-12T18:12:51.256Z,0
2016-10-12T18:13:12.541Z,0
2016-10-12T18:13:35.325Z,0
2016-10-12T18:13:57.069Z,0
2016-10-12T18:14:18.414Z,0
2016-10-12T18:14:39.756Z,0
2016-10-12T18:15:01.089Z,0
2016-10-12T18:15:22.408Z,0
2016-10-12T18:15:43.690Z,0
2016-10-12T18:16:05.759Z,0
2016-10-12T18:16:27.756Z,0
2016-10-12T18:16:49.075Z,0
2016-10-12T18:17:13.113Z,0
2016-10-12T18:17:34.491Z,0
2016-10-12T18:17:55.900Z,0
2016-10-12T18:18:17.105Z,0
2016-10-12T18:18:39.381Z,0
2016-10-12T18:19:00.693Z,0
2016-10-12T18:19:21.990Z,0
2016-10-12T18:19:43.261Z,0
2016-10-12T18:20:05.342Z,0
2016-10-12T18:20:27.484Z,0
2016-10-12T18:20:48.805Z,0
2016-10-12T18:21:10.149Z,0
2016-10-12T18:21:31.384Z,0
2016-10-12T18:21:52.656Z,0
2016-10-12T18:22:13.962Z,0
2016-10-12T18:22:35.302Z,0
2016-10-12T18:22:56.665Z,0
2016-10-12T18:23:18.764Z,0
2016-10-12T18:23:40.081Z,0
2016-10-12T18:24:01.466Z,0
2016-10-12T18:24:22.735Z,0
2016-10-12T18:24:44.976Z,0
2016-10-12T18:25:07.944Z,0
2016-10-12T18:25:29.336Z,0
2016-10-12T18:25:51.432Z,0
2016-10-12T18:26:13.331Z,0
2016-10-12T18:26:35.560Z,0
2016-10-12T18:26:56.928Z,0
2016-10-12T18:27:18.855Z,0
2016-10-12T18:27:40.154Z,0
2016-10-12T18:28:01.478Z,0
2016-10-12T18:28:23.009Z,0
2016-10-12T18:28:44.248Z,0
2016-10-12T18:29:06.100Z,0
2016-10-12T18:29:27.415Z,0
2016-10-12T18:29:48.970Z,0
2016-10-12T18:30:11.073Z,0
2016-10-12T18:30:32.414Z,0
2016-10-12T18:30:54.405Z,0
2016-10-12T18:31:15.732Z,0
2016-10-12T18:31:37.117Z,0
2016-10-12T18:31:58.508Z,0
2016-10-12T18:32:19.714Z,0
2016-10-12T18:32:41.082Z,0
2016-10-12T18:33:02.461Z,0
2016-10-12T18:33:23.766Z,0
2016-10-12T18:33:45.070Z,0
2016-10-12T18:34:07.264Z,0
2016-10-12T18:34:30.121Z,0
2016-10-12T18:34:52.588Z,0
2016-10-12T18:35:13.960Z,0
2016-10-12T18:35:35.345Z,0
2016-10-12T18:35:57.518Z,0
2016-10-12T18:36:19.409Z,0
2016-10-12T18:36:40.649Z,0
2016-10-12T18:37:01.915Z,0
2016-10-12T18:37:24.773Z,0
2016-10-12T18:37:46.159Z,0
2016-10-12T18:38:07.845Z,0
2016-10-12T18:38:29.136Z,0
2016-10-12T18:38:50.447Z,0
2016-10-12T18:39:11.706Z,0
2016-10-12T18:39:33.006Z,0
2016-10-12T18:39:54.421Z,0
2016-10-12T18:40:15.710Z,0
2016-10-12T18:40:37.023Z,0
2016-10-12T18:40:58.344Z,0
2016-10-12T18:41:20.267Z,0
2016-10-12T18:41:42.240Z,0
2016-10-12T18:42:03.487Z,0
2016-10-12T18:42:25.463Z,0
2016-10-12T18:42:46.814Z,0
2016-10-12T18:43:08.076Z,0
2016-10-12T18:43:29.289Z,0
2016-10-12T18:43:50.626Z,0
2016-10-12T18:44:11.917Z,0
2016-10-12T18:44:33.775Z,0
2016-10-12T18:44:55.101Z,0
2016-10-12T18:45:16.423Z,0
2016-10-12T18:45:37.747Z,0
2016-10-12T18:45:58.995Z,0
2016-10-12T18:46:20.250Z,0
2016-10-12T18:46:41.488Z,0
2016-10-12T18:47:02.701Z,0
2016-10-12T18:47:23.924Z,0
2016-10-12T18:47:45.192Z,0
2016-10-12T18:48:06.470Z,0
2016-10-12T18:48:27.743Z,0
2016-10-12T18:48:49.702Z,0
2016-10-12T18:49:11.906Z,0
2016-10-12T18:49:33.635Z,0
2016-10-12T18:49:54.911Z,0
2016-10-12T18:50:16.163Z,0
2016-10-12T18:50:37.412Z,0
2016-10-12T18:51:00.338Z,0
2016-10-12T18:51:32.981Z,0
2016-10-12T18:51:54.276Z,0
2016-10-12T18:52:15.483Z,0
2016-10-12T18:52:36.731Z,0
2016-10-12T18:52:58.035Z,0
2016-10-12T18:53:19.319Z,0
2016-10-12T18:53:41.273Z,0
2016-10-12T18:54:03.341Z,0
2016-10-12T18:54:24.607Z,0
2016-10-12T18:54:45.939Z,0
2016-10-12T18:55:07.986Z,0
2016-10-12T18:55:29.401Z,0
2016-10-12T18:55:50.793Z,0
2016-10-12T18:56:12.317Z,0
2016-10-12T18:56:33.664Z,0
2016-10-12T18:56:55.053Z,0
2016-10-12T18:57:16.456Z,0
2016-10-12T18:57:38.339Z,0
2016-10-12T18:57:59.702Z,0
2016-10-12T18:58:22.011Z,0
2016-10-12T18:58:45.031Z,0
2016-10-12T18:59:06.412Z,0
2016-10-12T18:59:27.869Z,0
2016-10-12T18:59:49.204Z,0
2016-10-12T19:00:11.294Z,0
2016-10-12T19:00:32.292Z,0
2016-10-12T19:00:53.655Z,0
2016-10-12T19:01:15.848Z,0
2016-10-12T19:01:37.156Z,0
2016-10-12T19:01:59.386Z,0
2016-10-12T19:02:20.646Z,0
2016-10-12T19:02:42.663Z,0
2016-10-12T19:03:04.973Z,0
2016-10-12T19:03:26.320Z,0
2016-10-12T19:03:48.832Z,0
2016-10-12T19:04:10.227Z,0
2016-10-12T19:04:31.705Z,0
2016-10-12T19:04:54.009Z,0
2016-10-12T19:05:15.535Z,0
2016-10-12T19:05:36.950Z,0
2016-10-12T19:05:59.250Z,0
2016-10-12T19:06:21.433Z,0
2016-10-12T19:06:42.998Z,0
2016-10-12T19:07:05.167Z,0
2016-10-12T19:07:26.586Z,0
2016-10-12T19:07:47.928Z,0
2016-10-12T19:08:09.476Z,0
2016-10-12T19:08:30.761Z,0
2016-10-12T19:08:52.089Z,0
2016-10-12T19:09:14.390Z,0
2016-10-12T19:09:35.724Z,0
2016-10-12T19:09:57.078Z,0
2016-10-12T19:10:18.529Z,0
2016-10-12T19:10:40.508Z,0
2016-10-12T19:11:01.783Z,0
2016-10-12T19:11:23.173Z,0
2016-10-12T19:11:44.625Z,0
2016-10-12T19:12:07.113Z,0
2016-10-12T19:12:28.506Z,0
2016-10-12T19:12:50.452Z,0
2016-10-12T19:13:13.278Z,0
2016-10-12T19:13:34.721Z,0
2016-10-12T19:13:57.030Z,0
2016-10-12T19:14:18.399Z,0
2016-10-12T19:14:39.767Z,0
2016-10-12T19:15:01.834Z,0
2016-10-12T19:15:23.240Z,0
2016-10-12T19:15:44.605Z,0
2016-10-12T19:16:05.918Z,0
2016-10-12T19:16:27.231Z,0
2016-10-12T19:16:48.529Z,0
2016-10-12T19:17:09.862Z,0
2016-10-12T19:17:31.278Z,0
2016-10-12T19:17:52.678Z,0
2016-10-12T19:18:13.973Z,0
2016-10-12T19:18:36.058Z,0
2016-10-12T19:18:57.996Z,0
2016-10-12T19:19:19.328Z,0
2016-10-12T19:19:40.766Z,0
2016-10-12T19:20:02.066Z,0
2016-10-12T19:20:23.507Z,0
2016-10-12T19:20:45.735Z,0
2016-10-12T19:21:07.061Z,0